Time;durP1;ratioP1;P1;durP2;ratioP2;P2;SDS_P1;SDS_P2;PMS_P1;PMS_P2;Temp;Humidity;BMP_temperature;BMP_pressure;BME280_temperature;BME280_humidity;BME280_pressure;Samples;Min_cycle;Max_cycle;Signal;HPM_P1;HPM_P2
2023/12/07 00:00:57;;;;;;;58.97;19.80;;;;;;;;;;8398663;28;20045;-94
2023/12/07 00:05:09;;;;;;;55.33;22.30;;;;;;;;;;8381164;28;20056;-92
2023/12/07 00:09:19;;;;;;;65.05;21.95;;;;;;;;;;8380918;28;20053;-91
2023/12/07 00:13:22;;;;;;;54.42;20.00;;;;;;;;;;8403774;28;20422;-92
2023/12/07 00:17:25;;;;;;;76.53;23.40;;;;;;;;;;8405196;28;20087;-93
2023/12/07 00:26:27;;;;;;;22.38;9.48;;;;;;;;;;8398156;28;20055;-92
2023/12/07 00:30:35;;;;;;;67.90;20.88;;;;;;;;;;8402527;28;20104;-92
2023/12/07 00:34:40;;;;;;;56.20;21.02;;;;;;;;;;8404430;28;20381;-91
2023/12/07 00:38:46;;;;;;;36.53;13.43;;;;;;;;;;8387345;28;20098;-91
2023/12/07 00:42:50;;;;;;;141.95;43.03;;;;;;;;;;8386578;28;20052;-94
2023/12/07 00:46:53;;;;;;;85.68;28.00;;;;;;;;;;8403996;28;20119;-93
2023/12/07 00:50:56;;;;;;;18.90;9.65;;;;;;;;;;8386984;28;20131;-94
2023/12/07 00:54:59;;;;;;;57.10;21.23;;;;;;;;;;8404023;28;20052;-93
2023/12/07 00:59:04;;;;;;;42.15;17.60;;;;;;;;;;8403554;28;20076;-93
2023/12/07 01:03:07;;;;;;;61.85;23.27;;;;;;;;;;8403206;28;20488;-92
2023/12/07 01:07:10;;;;;;;86.32;28.00;;;;;;;;;;8352472;28;20068;-91
2023/12/07 01:11:27;;;;;;;95.50;32.55;;;;;;;;;;8368469;28;20546;-93
2023/12/07 01:15:38;;;;;;;24.67;7.75;;;;;;;;;;8369899;28;20056;-92
2023/12/07 01:19:41;;;;;;;136.23;45.50;;;;;;;;;;8369641;28;20446;-93
2023/12/07 01:23:45;;;;;;;69.93;23.48;;;;;;;;;;8369775;28;20056;-92
2023/12/07 01:27:48;;;;;;;72.60;24.90;;;;;;;;;;8369267;28;20045;-95
2023/12/07 01:31:52;;;;;;;47.33;16.67;;;;;;;;;;8369138;28;20128;-93
2023/12/07 01:35:55;;;;;;;69.90;23.20;;;;;;;;;;8369477;28;20183;-91
2023/12/07 01:39:58;;;;;;;61.17;20.95;;;;;;;;;;8368868;28;20121;-93
2023/12/07 01:44:01;;;;;;;88.07;30.02;;;;;;;;;;8369691;28;20048;-92
2023/12/07 01:48:17;;;;;;;44.75;16.48;;;;;;;;;;8351922;28;20060;-94
2023/12/07 01:52:22;;;;;;;106.38;34.42;;;;;;;;;;8369095;28;20511;-92
2023/12/07 01:56:46;;;;;;;55.47;21.02;;;;;;;;;;8351674;28;20052;-93
2023/12/07 02:00:50;;;;;;;106.20;30.23;;;;;;;;;;8368618;28;20049;-93
2023/12/07 02:05:13;;;;;;;93.72;36.78;;;;;;;;;;8381463;28;20594;-93
2023/12/07 02:09:16;;;;;;;89.45;30.52;;;;;;;;;;8396152;28;20060;-93
2023/12/07 02:13:28;;;;;;;45.78;18.48;;;;;;;;;;8401524;28;20055;-94
2023/12/07 02:17:36;;;;;;;78.13;29.92;;;;;;;;;;8401323;28;20045;-93
2023/12/07 02:21:48;;;;;;;182.02;50.28;;;;;;;;;;8401512;28;20051;-93
2023/12/07 02:25:54;;;;;;;19.25;8.60;;;;;;;;;;8399969;28;20175;-93
2023/12/07 02:29:59;;;;;;;66.70;24.55;;;;;;;;;;8382537;28;20056;-92
2023/12/07 02:34:02;;;;;;;35.70;12.98;;;;;;;;;;8400192;28;20491;-94
2023/12/07 02:38:06;;;;;;;84.07;29.15;;;;;;;;;;8400479;28;20157;-91
2023/12/07 02:42:27;;;;;;;54.17;17.30;;;;;;;;;;8400557;28;20127;-95
2023/12/07 02:46:32;;;;;;;90.13;28.13;;;;;;;;;;8399912;28;20048;-95
2023/12/07 02:50:35;;;;;;;39.75;14.43;;;;;;;;;;8400153;28;20048;-94
2023/12/07 02:54:38;;;;;;;48.33;17.38;;;;;;;;;;8399164;28;20044;-94
2023/12/07 02:58:43;;;;;;;37.55;15.43;;;;;;;;;;8382749;28;20398;-94
2023/12/07 03:07:23;;;;;;;61.03;19.33;;;;;;;;;;8364802;28;20103;-93
2023/12/07 03:11:32;;;;;;;58.55;18.73;;;;;;;;;;8366705;28;20059;-93
2023/12/07 03:15:37;;;;;;;51.20;15.85;;;;;;;;;;8366403;28;20056;-95
2023/12/07 03:19:43;;;;;;;43.08;15.98;;;;;;;;;;8366398;28;20095;-93
2023/12/07 03:23:51;;;;;;;54.00;17.52;;;;;;;;;;8349315;28;20131;-93
2023/12/07 03:27:56;;;;;;;39.72;15.77;;;;;;;;;;8365980;28;20045;-93
2023/12/07 03:32:05;;;;;;;50.80;17.48;;;;;;;;;;8348724;28;20455;-94
2023/12/07 03:36:12;;;;;;;67.80;22.83;;;;;;;;;;8366435;28;20052;-91
2023/12/07 03:40:32;;;;;;;91.78;28.05;;;;;;;;;;8365780;28;20128;-94
2023/12/07 03:44:36;;;;;;;71.70;25.60;;;;;;;;;;8366399;28;20072;-91
2023/12/07 03:48:38;;;;;;;104.38;35.42;;;;;;;;;;8365711;28;20123;-92
2023/12/07 03:52:44;;;;;;;70.20;23.17;;;;;;;;;;8365758;28;20564;-94
2023/12/07 03:56:48;;;;;;;66.68;21.52;;;;;;;;;;8348997;28;20059;-94
2023/12/07 04:00:50;;;;;;;66.30;21.00;;;;;;;;;;8348703;28;20056;-94
2023/12/07 04:04:53;;;;;;;61.75;18.85;;;;;;;;;;8381947;28;20207;-93
2023/12/07 04:09:00;;;;;;;72.15;19.58;;;;;;;;;;8405324;28;20048;-93
2023/12/07 04:13:04;;;;;;;64.30;18.55;;;;;;;;;;8405435;28;20049;-93
2023/12/07 04:17:07;;;;;;;55.72;19.23;;;;;;;;;;8405294;28;20480;-93
2023/12/07 04:21:10;;;;;;;68.70;19.33;;;;;;;;;;8404937;28;20506;-93
2023/12/07 04:25:15;;;;;;;62.22;20.60;;;;;;;;;;8404444;28;20079;-95
2023/12/07 04:29:18;;;;;;;69.35;21.13;;;;;;;;;;8404967;28;20048;-94
2023/12/07 04:33:21;;;;;;;69.78;22.40;;;;;;;;;;8404908;28;20045;-95
2023/12/07 04:37:27;;;;;;;63.17;19.55;;;;;;;;;;8404339;28;20078;-94
2023/12/07 04:41:40;;;;;;;54.90;17.23;;;;;;;;;;8404771;28;20044;-93
2023/12/07 04:45:43;;;;;;;39.90;16.38;;;;;;;;;;8403530;28;20128;-92
2023/12/07 04:50:05;;;;;;;56.63;18.90;;;;;;;;;;8403760;28;20048;-91
2023/12/07 04:54:08;;;;;;;69.60;19.42;;;;;;;;;;8386323;28;20075;-92
2023/12/07 04:58:15;;;;;;;63.63;19.55;;;;;;;;;;8403388;28;20070;-91
2023/12/07 05:02:19;;;;;;;69.07;21.27;;;;;;;;;;8403926;28;20049;-91
2023/12/07 05:06:21;;;;;;;67.75;19.98;;;;;;;;;;8402701;28;20056;-93
2023/12/07 05:10:24;;;;;;;67.18;20.15;;;;;;;;;;8402766;28;20072;-93
2023/12/07 05:14:29;;;;;;;56.28;18.33;;;;;;;;;;8402705;28;20494;-92
2023/12/07 05:18:32;;;;;;;54.63;17.83;;;;;;;;;;8402746;28;20050;-94
2023/12/07 05:22:34;;;;;;;77.07;18.70;;;;;;;;;;8403017;28;20117;-94
2023/12/07 05:26:37;;;;;;;74.55;21.27;;;;;;;;;;8403078;28;20055;-94
2023/12/07 05:30:42;;;;;;;69.43;19.70;;;;;;;;;;8402446;28;20389;-94
2023/12/07 05:34:45;;;;;;;61.42;18.73;;;;;;;;;;8402633;28;20119;-92
2023/12/07 05:38:48;;;;;;;73.03;21.08;;;;;;;;;;8402365;28;20049;-92
2023/12/07 05:42:51;;;;;;;55.97;17.95;;;;;;;;;;8384608;28;20060;-93
2023/12/07 05:46:57;;;;;;;69.15;19.55;;;;;;;;;;8401950;28;20166;-94
2023/12/07 05:51:00;;;;;;;61.30;17.73;;;;;;;;;;8401855;28;20492;-94
2023/12/07 05:55:03;;;;;;;69.50;21.42;;;;;;;;;;8401792;28;20094;-91
2023/12/07 05:59:07;;;;;;;30.83;10.52;;;;;;;;;;8402510;28;20048;-95
2023/12/07 06:03:15;;;;;;;48.58;18.40;;;;;;;;;;8401305;28;20040;-92
2023/12/07 06:07:25;;;;;;;60.42;15.35;;;;;;;;;;8399666;28;20063;-93
2023/12/07 06:11:28;;;;;;;42.85;13.88;;;;;;;;;;8401281;28;20051;-94
2023/12/07 06:15:31;;;;;;;52.53;15.90;;;;;;;;;;8400072;28;20044;-94
2023/12/07 06:19:36;;;;;;;57.15;17.10;;;;;;;;;;8401260;28;20055;-93
2023/12/07 06:23:39;;;;;;;62.63;16.75;;;;;;;;;;8400952;28;20381;-93
2023/12/07 06:27:42;;;;;;;58.13;18.50;;;;;;;;;;8400421;28;20472;-93
2023/12/07 06:31:46;;;;;;;50.65;17.17;;;;;;;;;;8400503;28;20044;-94
2023/12/07 06:35:50;;;;;;;55.03;17.00;;;;;;;;;;8400111;28;20480;-93
2023/12/07 06:40:01;;;;;;;56.10;17.58;;;;;;;;;;8400122;28;20097;-92
2023/12/07 06:44:04;;;;;;;68.88;21.67;;;;;;;;;;8400334;28;20040;-94
2023/12/07 06:48:11;;;;;;;54.53;19.27;;;;;;;;;;8399631;28;20452;-93
2023/12/07 06:52:31;;;;;;;93.20;25.23;;;;;;;;;;8399756;28;20450;-94
2023/12/07 06:56:36;;;;;;;85.47;23.25;;;;;;;;;;8399601;28;20139;-93
2023/12/07 07:00:40;;;;;;;64.18;18.95;;;;;;;;;;8398755;28;20076;-95
2023/12/07 07:04:48;;;;;;;91.07;26.77;;;;;;;;;;8399576;28;20392;-95
2023/12/07 07:14:31;;;;;;;63.60;19.27;;;;;;;;;;8381311;28;20412;-94
2023/12/07 07:18:38;;;;;;;54.55;19.02;;;;;;;;;;8396295;28;20056;-93
2023/12/07 07:22:46;;;;;;;64.35;19.15;;;;;;;;;;8396032;28;20056;-93
2023/12/07 07:32:37;;;;;;;;;;;;;;;;;;8399701;28;20047;-94
2023/12/07 07:37:34;;;;;;;56.63;18.10;;;;;;;;;;8396952;28;19920;-92
2023/12/07 07:41:46;;;;;;;61.38;18.77;;;;;;;;;;8399210;28;20067;-94
2023/12/07 07:45:54;;;;;;;;;;;;;;;;;;8400456;28;20514;-92
2023/12/07 07:49:58;;;;;;;68.43;19.30;;;;;;;;;;8381020;28;19920;-95
2023/12/07 07:54:03;;;;;;;85.32;29.45;;;;;;;;;;8398178;28;20068;-94
2023/12/07 07:58:06;;;;;;;75.20;24.35;;;;;;;;;;8399499;28;20048;-94
2023/12/07 08:06:32;;;;;;;50.22;18.63;;;;;;;;;;8398273;28;20060;-94
2023/12/07 08:10:36;;;;;;;46.25;16.02;;;;;;;;;;8399727;28;20131;-95
2023/12/07 08:14:39;;;;;;;36.58;14.02;;;;;;;;;;8399348;28;20070;-92
2023/12/07 08:18:48;;;;;;;53.33;20.08;;;;;;;;;;8399562;28;20079;-92
2023/12/07 08:22:51;;;;;;;38.78;14.85;;;;;;;;;;8398266;28;20127;-93
2023/12/07 08:26:56;;;;;;;52.88;21.95;;;;;;;;;;8379609;28;20563;-94
2023/12/07 08:30:59;;;;;;;50.25;20.30;;;;;;;;;;8396722;28;20346;-94
2023/12/07 08:35:02;;;;;;;59.08;20.52;;;;;;;;;;8397031;28;20068;-93
2023/12/07 08:39:09;;;;;;;61.38;24.20;;;;;;;;;;8397859;28;20119;-93
2023/12/07 08:43:17;;;;;;;31.98;14.48;;;;;;;;;;8398616;28;20075;-95
2023/12/07 08:47:21;;;;;;;28.70;11.18;;;;;;;;;;8398370;28;20131;-95
2023/12/07 08:51:25;;;;;;;35.63;13.85;;;;;;;;;;8400423;28;20048;-94
2023/12/07 08:55:28;;;;;;;34.42;13.48;;;;;;;;;;8404462;28;20051;-93
2023/12/07 08:59:33;;;;;;;40.33;14.43;;;;;;;;;;8387071;28;20048;-94
2023/12/07 09:03:37;;;;;;;39.22;17.35;;;;;;;;;;8378393;28;20045;-95
2023/12/07 09:07:40;;;;;;;34.92;14.38;;;;;;;;;;8360954;28;20396;-89
2023/12/07 09:11:43;;;;;;;30.90;13.10;;;;;;;;;;8401323;28;20075;-90
2023/12/07 09:15:48;;;;;;;34.35;16.52;;;;;;;;;;8385111;28;20124;-92
2023/12/07 09:19:51;;;;;;;21.73;10.75;;;;;;;;;;8373161;28;20073;-92
2023/12/07 09:23:54;;;;;;;27.90;12.55;;;;;;;;;;8373165;28;20123;-93
2023/12/07 09:27:59;;;;;;;22.05;11.75;;;;;;;;;;8373129;28;20057;-94
2023/12/07 09:32:18;;;;;;;32.72;15.90;;;;;;;;;;8371786;28;20124;-94
2023/12/07 09:36:23;;;;;;;21.38;10.32;;;;;;;;;;8375900;28;20101;-94
2023/12/07 09:40:44;;;;;;;21.80;10.43;;;;;;;;;;8374244;28;20056;-93
2023/12/07 09:44:50;;;;;;;9.30;4.75;;;;;;;;;;8374965;28;20044;-94
2023/12/07 09:48:56;;;;;;;27.48;12.50;;;;;;;;;;8372887;28;20101;-94
2023/12/07 09:53:02;;;;;;;24.42;11.55;;;;;;;;;;8372490;28;20073;-93
2023/12/07 09:57:06;;;;;;;18.20;8.57;;;;;;;;;;8371613;28;20132;-94
2023/12/07 10:01:20;;;;;;;17.42;6.95;;;;;;;;;;8370600;28;20048;-94
2023/12/07 10:05:57;;;;;;;19.48;10.52;;;;;;;;;;8370633;28;20040;-94
2023/12/07 10:10:03;;;;;;;13.85;7.65;;;;;;;;;;8383701;28;20064;-93
2023/12/07 10:14:07;;;;;;;16.23;8.02;;;;;;;;;;8397693;28;20115;-93
2023/12/07 10:18:10;;;;;;;16.63;9.85;;;;;;;;;;8400767;28;20052;-94
2023/12/07 10:22:21;;;;;;;20.40;9.82;;;;;;;;;;8382987;28;20101;-94
2023/12/07 10:26:25;;;;;;;13.13;6.93;;;;;;;;;;8399561;28;20052;-92
2023/12/07 10:30:29;;;;;;;31.35;15.77;;;;;;;;;;8400149;28;20078;-92
2023/12/07 10:34:33;;;;;;;13.35;7.40;;;;;;;;;;8400088;28;20174;-92
2023/12/07 10:43:08;;;;;;;15.85;8.13;;;;;;;;;;8200560;29;20066;-92
2023/12/07 10:47:14;;;;;;;13.52;6.43;;;;;;;;;;8199856;29;20066;-91
2023/12/07 10:51:24;;;;;;;12.25;7.22;;;;;;;;;;8184266;29;20062;-92
2023/12/07 10:55:31;;;;;;;16.60;8.30;;;;;;;;;;8200737;29;20567;-92
2023/12/07 10:59:39;;;;;;;17.83;9.13;;;;;;;;;;8277137;28;20419;-92
2023/12/07 11:03:44;;;;;;;23.25;12.77;;;;;;;;;;8398883;28;20044;-93
2023/12/07 11:07:56;;;;;;;20.80;11.93;;;;;;;;;;8398700;28;20048;-93
2023/12/07 11:12:07;;;;;;;13.90;7.68;;;;;;;;;;8398199;28;20127;-91
2023/12/07 11:16:12;;;;;;;15.23;7.85;;;;;;;;;;8398300;28;20048;-92
2023/12/07 11:20:20;;;;;;;16.95;7.45;;;;;;;;;;8398210;28;20044;-91
2023/12/07 11:24:25;;;;;;;13.32;7.00;;;;;;;;;;8381126;28;20110;-91
2023/12/07 11:28:38;;;;;;;12.43;6.75;;;;;;;;;;8397898;28;20116;-91
2023/12/07 11:32:44;;;;;;;15.38;7.63;;;;;;;;;;8397458;28;20052;-91
2023/12/07 11:36:47;;;;;;;20.00;8.30;;;;;;;;;;8397902;28;20040;-92
2023/12/07 11:40:50;;;;;;;27.48;10.88;;;;;;;;;;8397575;28;20068;-90
2023/12/07 11:44:53;;;;;;;18.42;8.77;;;;;;;;;;8396834;28;20040;-91
2023/12/07 11:49:00;;;;;;;17.75;9.15;;;;;;;;;;8397135;28;20045;-93
2023/12/07 11:53:03;;;;;;;20.15;8.63;;;;;;;;;;8396972;28;20044;-91
2023/12/07 11:57:10;;;;;;;19.35;8.63;;;;;;;;;;8396717;28;20048;-93
2023/12/07 12:01:13;;;;;;;20.33;10.25;;;;;;;;;;8397066;28;20040;-89
2023/12/07 12:05:20;;;;;;;20.38;9.75;;;;;;;;;;8379269;28;20076;-91
2023/12/07 12:09:25;;;;;;;27.23;14.55;;;;;;;;;;8396895;28;20048;-91
2023/12/07 12:13:29;;;;;;;24.40;11.65;;;;;;;;;;8396811;28;20561;-92
2023/12/07 12:17:36;;;;;;;33.75;15.70;;;;;;;;;;8379003;28;20048;-92
2023/12/07 12:21:44;;;;;;;16.05;9.10;;;;;;;;;;8396803;28;20072;-92
2023/12/07 12:25:48;;;;;;;20.80;9.70;;;;;;;;;;8382092;28;20059;-91
2023/12/07 12:29:54;;;;;;;22.10;11.05;;;;;;;;;;8402289;28;20056;-92
2023/12/07 12:33:57;;;;;;;18.75;10.15;;;;;;;;;;8385728;28;20598;-92
2023/12/07 12:38:19;;;;;;;25.65;13.70;;;;;;;;;;8402968;28;20048;-91
2023/12/07 12:47:45;;;;;;;21.95;10.02;;;;;;;;;;8525097;22;20063;-91
2023/12/07 12:51:49;;;;;;;14.20;7.13;;;;;;;;;;8368687;28;20048;-90
2023/12/07 12:55:54;;;;;;;25.02;12.15;;;;;;;;;;8351385;28;20045;-91
2023/12/07 12:59:56;;;;;;;28.33;14.13;;;;;;;;;;8368600;28;20484;-92
2023/12/07 13:04:00;;;;;;;24.17;10.80;;;;;;;;;;8351158;28;20061;-92
2023/12/07 13:18:51;;;;;;;12.80;6.50;;;;;;;;;;8301101;28;20523;-91
2023/12/07 13:22:55;;;;;;;23.67;9.75;;;;;;;;;;8302286;28;20054;-91
2023/12/07 13:27:00;;;;;;;32.17;13.73;;;;;;;;;;8302156;28;20050;-90
2023/12/07 13:31:03;;;;;;;31.77;15.30;;;;;;;;;;8302069;28;20057;-91
2023/12/07 13:35:08;;;;;;;40.83;21.85;;;;;;;;;;8301894;28;20049;-91
2023/12/07 13:39:12;;;;;;;43.03;19.63;;;;;;;;;;8283300;28;20108;-90
2023/12/07 13:43:16;;;;;;;61.47;20.63;;;;;;;;;;8300688;28;20041;-90
2023/12/07 13:47:20;;;;;;;124.03;45.05;;;;;;;;;;8301346;28;20107;-91
2023/12/07 13:51:39;;;;;;;15.70;7.47;;;;;;;;;;8301269;28;20051;-91
2023/12/07 14:00:12;;;;;;;48.60;21.17;;;;;;;;;;8299378;28;20135;-91
2023/12/07 14:04:15;;;;;;;42.67;20.48;;;;;;;;;;8284407;28;20128;-91
2023/12/07 14:08:20;;;;;;;55.15;25.98;;;;;;;;;;8300660;28;20045;-90
2023/12/07 14:12:40;;;;;;;57.97;22.65;;;;;;;;;;8300829;28;20042;-91
2023/12/07 14:16:43;;;;;;;29.17;12.77;;;;;;;;;;8300543;28;20112;-91
2023/12/07 14:20:47;;;;;;;46.85;21.83;;;;;;;;;;8300270;28;20045;-91
2023/12/07 14:24:52;;;;;;;28.58;12.85;;;;;;;;;;8300327;28;20050;-91
2023/12/07 14:28:54;;;;;;;36.53;15.30;;;;;;;;;;8298673;28;20050;-91
2023/12/07 14:32:57;;;;;;;29.17;12.95;;;;;;;;;;8299822;28;20489;-90
2023/12/07 14:37:02;;;;;;;24.95;11.30;;;;;;;;;;8300090;28;20052;-91
2023/12/07 14:41:08;;;;;;;35.90;13.45;;;;;;;;;;8299404;28;20056;-90
2023/12/07 14:45:11;;;;;;;36.50;15.10;;;;;;;;;;8299682;28;20065;-91
2023/12/07 14:49:16;;;;;;;28.20;11.63;;;;;;;;;;8299406;28;20046;-90
2023/12/07 14:53:23;;;;;;;24.80;10.50;;;;;;;;;;8282939;28;20800;-91
2023/12/07 14:57:28;;;;;;;38.15;17.88;;;;;;;;;;8299618;28;20046;-91
2023/12/07 15:01:34;;;;;;;36.47;15.27;;;;;;;;;;8299386;28;20068;-91
2023/12/07 15:05:43;;;;;;;38.05;16.38;;;;;;;;;;8302126;28;20049;-90
2023/12/07 15:09:51;;;;;;;49.67;20.15;;;;;;;;;;8298985;28;20045;-91
2023/12/07 15:14:02;;;;;;;35.30;13.55;;;;;;;;;;8299067;28;20172;-92
2023/12/07 15:18:05;;;;;;;57.03;22.63;;;;;;;;;;8298834;28;20072;-91
2023/12/07 15:22:10;;;;;;;51.15;18.58;;;;;;;;;;8298531;28;20050;-90
2023/12/07 15:26:13;;;;;;;54.70;22.02;;;;;;;;;;8298993;28;20496;-90
2023/12/07 15:30:23;;;;;;;388.42;133.98;;;;;;;;;;8298467;28;20049;-91
2023/12/07 15:34:27;;;;;;;73.95;26.75;;;;;;;;;;8281942;28;20050;-90
2023/12/07 15:38:30;;;;;;;80.10;30.52;;;;;;;;;;8281864;28;20485;-90
2023/12/07 15:42:43;;;;;;;;;;;;;;;;;;;;;
2023/12/07 15:56:47;;;;;;;133.80;48.83;;;;;;;;;;8506017;22;20144;-92
2023/12/07 16:00:54;;;;;;;44.88;18.27;;;;;;;;;;8367460;28;20076;-91
2023/12/07 16:04:57;;;;;;;101.65;38.20;;;;;;;;;;8370065;28;20060;-91
2023/12/07 16:09:00;;;;;;;63.28;23.75;;;;;;;;;;8369791;28;20040;-90
2023/12/07 16:13:04;;;;;;;44.92;18.73;;;;;;;;;;8370198;28;20476;-91
2023/12/07 16:17:10;;;;;;;86.72;28.38;;;;;;;;;;8370705;28;20053;-91
2023/12/07 16:21:16;;;;;;;90.05;25.75;;;;;;;;;;8370050;28;20041;-90
2023/12/07 16:30:38;;;;;;;87.40;26.92;;;;;;;;;;8343672;28;20063;-91
2023/12/07 16:34:42;;;;;;;83.45;25.40;;;;;;;;;;8369164;28;20072;-91
2023/12/07 16:38:45;;;;;;;852.60;280.05;;;;;;;;;;8368830;28;20052;-90
2023/12/07 16:42:58;;;;;;;81.47;26.25;;;;;;;;;;8368765;28;20147;-89
2023/12/07 16:47:07;;;;;;;53.28;21.63;;;;;;;;;;8369228;28;20088;-91
2023/12/07 16:51:10;;;;;;;100.05;33.78;;;;;;;;;;8351701;28;20447;-90
2023/12/07 16:55:13;;;;;;;102.72;34.80;;;;;;;;;;8368698;28;20080;-90
2023/12/07 16:59:16;;;;;;;110.55;38.13;;;;;;;;;;8368951;28;20400;-91
2023/12/07 17:03:22;;;;;;;152.77;41.45;;;;;;;;;;8369122;28;20040;-91
2023/12/07 17:07:26;;;;;;;94.78;39.08;;;;;;;;;;8351323;28;20053;-92
2023/12/07 17:11:29;;;;;;;179.63;51.78;;;;;;;;;;8367167;28;20099;-91
2023/12/07 17:15:34;;;;;;;106.00;40.13;;;;;;;;;;8368179;28;20503;-91
2023/12/07 17:19:39;;;;;;;64.28;24.55;;;;;;;;;;8350637;28;20106;-90
2023/12/07 17:23:42;;;;;;;61.40;25.85;;;;;;;;;;8368360;28;20401;-91
2023/12/07 17:27:45;;;;;;;161.07;42.40;;;;;;;;;;8368478;28;20464;-91
2023/12/07 17:31:58;;;;;;;77.97;29.30;;;;;;;;;;8364730;28;20080;-91
2023/12/07 17:36:06;;;;;;;89.43;35.65;;;;;;;;;;8367781;28;20048;-90
2023/12/07 17:40:09;;;;;;;183.68;51.95;;;;;;;;;;8367558;28;20500;-89
2023/12/07 17:44:12;;;;;;;149.50;37.53;;;;;;;;;;8367711;28;20044;-89
2023/12/07 17:48:15;;;;;;;81.53;26.55;;;;;;;;;;8367720;28;20098;-91
2023/12/07 17:52:20;;;;;;;195.95;67.97;;;;;;;;;;8367386;28;20059;-92
2023/12/07 17:56:40;;;;;;;89.32;31.17;;;;;;;;;;8367597;28;20114;-90
2023/12/07 18:00:43;;;;;;;64.82;24.20;;;;;;;;;;8367817;28;20128;-91
2023/12/07 18:04:49;;;;;;;70.13;22.50;;;;;;;;;;8367500;28;20055;-91
2023/12/07 18:08:56;;;;;;;82.85;30.30;;;;;;;;;;8349677;28;20398;-90
2023/12/07 18:13:00;;;;;;;128.80;36.05;;;;;;;;;;8366578;28;20048;-91
2023/12/07 18:17:21;;;;;;;136.85;36.75;;;;;;;;;;8366383;28;20045;-90
2023/12/07 18:25:44;;;;;;;74.03;30.90;;;;;;;;;;8364709;28;20053;-92
2023/12/07 18:29:47;;;;;;;63.08;23.10;;;;;;;;;;8366327;28;20075;-89
2023/12/07 18:33:50;;;;;;;94.43;28.63;;;;;;;;;;8372875;28;20049;-90
2023/12/07 18:37:53;;;;;;;108.43;38.63;;;;;;;;;;8394544;28;20071;-91
2023/12/07 18:41:57;;;;;;;77.82;24.45;;;;;;;;;;8393540;28;20177;-91
2023/12/07 18:46:04;;;;;;;730.22;207.13;;;;;;;;;;8390878;28;20045;-91
2023/12/07 18:50:08;;;;;;;92.90;30.00;;;;;;;;;;8366093;28;20040;-90
2023/12/07 18:54:11;;;;;;;101.20;35.08;;;;;;;;;;8366921;28;20645;-91
2023/12/07 18:58:16;;;;;;;398.27;115.60;;;;;;;;;;8365816;28;20091;-90
2023/12/07 19:02:24;;;;;;;114.75;37.67;;;;;;;;;;8365292;28;20071;-92
2023/12/07 19:06:28;;;;;;;223.10;60.25;;;;;;;;;;8374369;28;20881;-92
2023/12/07 19:10:31;;;;;;;82.65;28.05;;;;;;;;;;8365104;28;20524;-92
2023/12/07 19:15:12;;;;;;;136.32;46.00;;;;;;;;;;8367832;28;20488;-91
2023/12/07 19:23:35;;;;;;;77.70;27.65;;;;;;;;;;8393708;28;20061;-91
2023/12/07 19:27:38;;;;;;;92.55;33.88;;;;;;;;;;8395693;28;20048;-90
2023/12/07 19:31:51;;;;;;;72.97;30.23;;;;;;;;;;8364086;28;20102;-91
2023/12/07 19:35:56;;;;;;;88.32;32.22;;;;;;;;;;8364713;28;20045;-90
2023/12/07 19:40:00;;;;;;;70.88;27.60;;;;;;;;;;8369888;28;20064;-92
2023/12/07 19:44:03;;;;;;;92.40;32.55;;;;;;;;;;8398634;28;20059;-91
2023/12/07 19:48:07;;;;;;;76.65;29.83;;;;;;;;;;8385664;28;20049;-91
2023/12/07 19:52:12;;;;;;;102.93;38.72;;;;;;;;;;8362100;28;20499;-90
2023/12/07 19:56:18;;;;;;;71.47;25.65;;;;;;;;;;8363623;28;20415;-90
2023/12/07 20:01:23;;;;;;;105.82;37.33;;;;;;;;;;8363956;28;20053;-91
2023/12/07 20:05:28;;;;;;;96.22;33.17;;;;;;;;;;8270859;28;20480;-92
2023/12/07 20:09:48;;;;;;;147.27;44.88;;;;;;;;;;8229835;28;20046;-92
2023/12/07 20:13:57;;;;;;;178.80;48.35;;;;;;;;;;8230538;28;20082;-92
2023/12/07 20:18:06;;;;;;;286.02;62.70;;;;;;;;;;8230595;28;20074;-90
2023/12/07 20:22:12;;;;;;;312.23;85.95;;;;;;;;;;8214612;28;20085;-91
2023/12/07 20:30:40;;;;;;;108.88;39.33;;;;;;;;;;8229613;28;20063;-92
2023/12/07 20:35:04;;;;;;;87.47;32.95;;;;;;;;;;8134654;29;20052;-91
2023/12/07 20:44:21;;;;;;;96.78;35.97;;;;;;;;;;8407626;22;20067;-90
2023/12/07 20:48:25;;;;;;;118.60;40.10;;;;;;;;;;8384978;28;20051;-90
2023/12/07 20:52:28;;;;;;;554.55;204.55;;;;;;;;;;8402677;28;20044;-91
2023/12/07 20:56:31;;;;;;;169.00;49.60;;;;;;;;;;8402540;28;20044;-91
2023/12/07 21:00:39;;;;;;;103.53;41.25;;;;;;;;;;8403054;28;20052;-92
2023/12/07 21:04:43;;;;;;;115.63;38.65;;;;;;;;;;8402557;28;20043;-92
2023/12/07 21:08:47;;;;;;;79.97;29.08;;;;;;;;;;8402542;28;20070;-91
2023/12/07 21:12:56;;;;;;;78.32;27.90;;;;;;;;;;8385647;28;20484;-91
2023/12/07 21:22:10;;;;;;;79.60;28.70;;;;;;;;;;8402623;28;20059;-91
2023/12/07 21:26:13;;;;;;;76.80;27.73;;;;;;;;;;8402995;28;20446;-91
2023/12/07 21:30:18;;;;;;;77.85;29.15;;;;;;;;;;8401763;28;20448;-91
2023/12/07 21:34:22;;;;;;;74.53;26.90;;;;;;;;;;8402146;28;20506;-91
2023/12/07 21:38:25;;;;;;;70.13;26.90;;;;;;;;;;8401807;28;20079;-90
2023/12/07 21:42:28;;;;;;;87.15;30.83;;;;;;;;;;8383819;28;20072;-92
2023/12/07 21:46:32;;;;;;;82.00;29.75;;;;;;;;;;8401938;28;20072;-92
2023/12/07 21:50:37;;;;;;;78.68;30.25;;;;;;;;;;8401488;28;20182;-91
2023/12/07 21:54:40;;;;;;;79.45;30.10;;;;;;;;;;8401171;28;20051;-91
2023/12/07 21:58:45;;;;;;;94.60;31.58;;;;;;;;;;8401006;28;20041;-93
2023/12/07 22:02:51;;;;;;;92.15;30.05;;;;;;;;;;8401080;28;20139;-92
2023/12/07 22:07:00;;;;;;;99.70;32.55;;;;;;;;;;8401310;28;20381;-91
2023/12/07 22:11:05;;;;;;;85.50;28.95;;;;;;;;;;8399827;28;20055;-92
2023/12/07 22:15:10;;;;;;;84.65;31.55;;;;;;;;;;8381074;28;20062;-92
2023/12/07 22:23:52;;;;;;;81.15;28.70;;;;;;;;;;8378728;28;20135;-90
2023/12/07 22:27:57;;;;;;;80.03;28.95;;;;;;;;;;8399645;28;20048;-90
2023/12/07 22:32:00;;;;;;;80.20;29.27;;;;;;;;;;8399509;28;20062;-91
2023/12/07 22:36:03;;;;;;;80.82;31.00;;;;;;;;;;8399346;28;20474;-90
2023/12/07 22:40:09;;;;;;;90.35;31.42;;;;;;;;;;8399501;28;20044;-91
2023/12/07 22:44:13;;;;;;;94.80;32.63;;;;;;;;;;8399150;28;20061;-91
2023/12/07 22:48:16;;;;;;;80.75;27.70;;;;;;;;;;8399217;28;20051;-91
2023/12/07 22:52:19;;;;;;;59.22;24.52;;;;;;;;;;8399310;28;20044;-90
2023/12/07 22:56:23;;;;;;;74.88;28.55;;;;;;;;;;8399301;28;20049;-91
2023/12/07 23:00:29;;;;;;;81.22;27.65;;;;;;;;;;8380760;28;20055;-91
2023/12/07 23:04:32;;;;;;;85.10;29.55;;;;;;;;;;8399072;28;20068;-90
2023/12/07 23:08:35;;;;;;;68.35;25.65;;;;;;;;;;8397873;28;20048;-91
2023/12/07 23:12:39;;;;;;;88.32;28.77;;;;;;;;;;8398316;28;20169;-91
2023/12/07 23:16:43;;;;;;;78.03;26.70;;;;;;;;;;8398877;28;20045;-90
2023/12/07 23:20:46;;;;;;;82.82;27.92;;;;;;;;;;8398310;28;20052;-93
2023/12/07 23:24:49;;;;;;;76.57;26.85;;;;;;;;;;8398594;28;20074;-92
2023/12/07 23:28:53;;;;;;;81.38;26.30;;;;;;;;;;8398520;28;20460;-91
2023/12/07 23:32:56;;;;;;;82.40;26.83;;;;;;;;;;8398087;28;20058;-91
2023/12/07 23:37:02;;;;;;;77.05;28.05;;;;;;;;;;8398383;28;20051;-91
2023/12/07 23:41:05;;;;;;;79.32;24.38;;;;;;;;;;8397967;28;20071;-91
2023/12/07 23:45:11;;;;;;;103.45;28.15;;;;;;;;;;8363237;28;20079;-92
2023/12/07 23:49:14;;;;;;;68.05;25.05;;;;;;;;;;8364808;28;20041;-91
2023/12/07 23:53:17;;;;;;;73.45;25.88;;;;;;;;;;8364368;28;20548;-92
2023/12/07 23:57:26;;;;;;;82.10;26.88;;;;;;;;;;8364608;28;20070;-92
